sensor_id;sensor_type;location;lat;lon;timestamp;temperature;humidity
12817;DHT22;6473;51.552;6.716;2022-10-12T00:00:34;6.60;99.90
12817;DHT22;6473;51.552;6.716;2022-10-12T00:03:01;6.70;99.90
12817;DHT22;6473;51.552;6.716;2022-10-12T00:05:28;6.70;99.90
12817;DHT22;6473;51.552;6.716;2022-10-12T00:07:55;6.70;99.90
12817;DHT22;6473;51.552;6.716;2022-10-12T00:10:22;7.40;99.90
12817;DHT22;6473;51.552;6.716;2022-10-12T00:12:50;6.70;99.90
12817;DHT22;6473;51.552;6.716;2022-10-12T00:15:17;6.70;99.90
12817;DHT22;6473;51.552;6.716;2022-10-12T00:17:44;6.70;99.90
12817;DHT22;6473;51.552;6.716;2022-10-12T00:20:11;6.70;99.90
12817;DHT22;6473;51.552;6.716;2022-10-12T00:22:38;6.70;99.90
12817;DHT22;6473;51.552;6.716;2022-10-12T00:25:06;6.60;99.90
12817;DHT22;6473;51.552;6.716;2022-10-12T00:27:33;6.50;99.90
12817;DHT22;6473;51.552;6.716;2022-10-12T00:30:01;6.90;99.90
12817;DHT22;6473;51.552;6.716;2022-10-12T00:32:28;6.50;99.90
12817;DHT22;6473;51.552;6.716;2022-10-12T00:34:55;6.40;99.90
12817;DHT22;6473;51.552;6.716;2022-10-12T00:37:21;6.40;99.90
12817;DHT22;6473;51.552;6.716;2022-10-12T00:39:48;6.40;99.90
12817;DHT22;6473;51.552;6.716;2022-10-12T00:42:18;6.50;99.90
12817;DHT22;6473;51.552;6.716;2022-10-12T00:44:47;6.40;99.90
12817;DHT22;6473;51.552;6.716;2022-10-12T00:47:22;6.30;99.90
12817;DHT22;6473;51.552;6.716;2022-10-12T00:49:54;6.40;99.90
12817;DHT22;6473;51.552;6.716;2022-10-12T00:52:24;7.10;99.90
12817;DHT22;6473;51.552;6.716;2022-10-12T00:54:54;7.40;99.90
12817;DHT22;6473;51.552;6.716;2022-10-12T00:57:21;6.40;99.90
12817;DHT22;6473;51.552;6.716;2022-10-12T00:59:52;6.40;99.90
12817;DHT22;6473;51.552;6.716;2022-10-12T01:02:22;6.30;99.90
12817;DHT22;6473;51.552;6.716;2022-10-12T01:53:26;6.20;99.90
12817;DHT22;6473;51.552;6.716;2022-10-12T01:56:00;6.10;99.90
12817;DHT22;6473;51.552;6.716;2022-10-12T01:58:43;6.10;99.90
12817;DHT22;6473;51.552;6.716;2022-10-12T02:01:19;6.10;99.90
12817;DHT22;6473;51.552;6.716;2022-10-12T02:03:50;6.50;99.90
12817;DHT22;6473;51.552;6.716;2022-10-12T02:06:25;6.10;99.90
12817;DHT22;6473;51.552;6.716;2022-10-12T02:09:01;5.80;99.90
12817;DHT22;6473;51.552;6.716;2022-10-12T02:46:32;5.90;99.90
12817;DHT22;6473;51.552;6.716;2022-10-12T02:49:01;5.90;99.90
12817;DHT22;6473;51.552;6.716;2022-10-12T03:26:38;5.70;99.90
12817;DHT22;6473;51.552;6.716;2022-10-12T03:31:48;5.60;99.90
12817;DHT22;6473;51.552;6.716;2022-10-12T03:34:19;5.70;99.90
12817;DHT22;6473;51.552;6.716;2022-10-12T03:36:46;5.60;99.90
12817;DHT22;6473;51.552;6.716;2022-10-12T03:41:43;5.60;99.90
12817;DHT22;6473;51.552;6.716;2022-10-12T03:54:02;5.70;99.90
12817;DHT22;6473;51.552;6.716;2022-10-12T03:58:59;5.70;99.90
12817;DHT22;6473;51.552;6.716;2022-10-12T04:59:05;5.90;99.90
12817;DHT22;6473;51.552;6.716;2022-10-12T05:01:32;5.80;99.90
12817;DHT22;6473;51.552;6.716;2022-10-12T05:03:59;5.80;99.90
12817;DHT22;6473;51.552;6.716;2022-10-12T05:06:27;5.80;99.90
12817;DHT22;6473;51.552;6.716;2022-10-12T05:11:21;5.70;99.90
12817;DHT22;6473;51.552;6.716;2022-10-12T05:16:16;5.50;99.90
12817;DHT22;6473;51.552;6.716;2022-10-12T05:37:39;5.30;99.90
12817;DHT22;6473;51.552;6.716;2022-10-12T05:40:07;5.30;99.90
12817;DHT22;6473;51.552;6.716;2022-10-12T06:03:03;4.10;99.90
12817;DHT22;6473;51.552;6.716;2022-10-12T06:10:44;5.20;99.90
12817;DHT22;6473;51.552;6.716;2022-10-12T06:15:45;5.10;99.90
12817;DHT22;6473;51.552;6.716;2022-10-12T06:18:19;5.40;99.90
12817;DHT22;6473;51.552;6.716;2022-10-12T06:21:01;5.60;99.90
12817;DHT22;6473;51.552;6.716;2022-10-12T06:26:03;5.80;99.90
12817;DHT22;6473;51.552;6.716;2022-10-12T06:31:06;5.70;99.90
12817;DHT22;6473;51.552;6.716;2022-10-12T06:33:37;5.70;99.90
12817;DHT22;6473;51.552;6.716;2022-10-12T06:36:04;5.70;99.90
12817;DHT22;6473;51.552;6.716;2022-10-12T06:38:31;5.60;99.90
12817;DHT22;6473;51.552;6.716;2022-10-12T06:40:58;5.60;99.90
12817;DHT22;6473;51.552;6.716;2022-10-12T06:43:24;5.60;99.90
12817;DHT22;6473;51.552;6.716;2022-10-12T06:45:51;5.50;99.90
12817;DHT22;6473;51.552;6.716;2022-10-12T06:48:18;5.60;99.90
12817;DHT22;6473;51.552;6.716;2022-10-12T06:50:47;5.60;99.90
12817;DHT22;6473;51.552;6.716;2022-10-12T06:53:13;5.70;99.90
12817;DHT22;6473;51.552;6.716;2022-10-12T06:55:41;5.90;99.90
12817;DHT22;6473;51.552;6.716;2022-10-12T06:58:07;5.90;99.90
12817;DHT22;6473;51.552;6.716;2022-10-12T07:00:34;5.90;99.90
12817;DHT22;6473;51.552;6.716;2022-10-12T07:03:01;5.90;99.90
12817;DHT22;6473;51.552;6.716;2022-10-12T07:05:29;5.90;99.90
12817;DHT22;6473;51.552;6.716;2022-10-12T07:07:57;6.00;99.90
12817;DHT22;6473;51.552;6.716;2022-10-12T07:10:24;7.50;99.90
12817;DHT22;6473;51.552;6.716;2022-10-12T07:12:51;6.30;99.90
12817;DHT22;6473;51.552;6.716;2022-10-12T07:15:18;7.00;99.90
12817;DHT22;6473;51.552;6.716;2022-10-12T07:17:45;6.50;99.90
12817;DHT22;6473;51.552;6.716;2022-10-12T07:20:12;6.80;99.90
12817;DHT22;6473;51.552;6.716;2022-10-12T07:22:39;7.00;99.90
12817;DHT22;6473;51.552;6.716;2022-10-12T07:25:08;7.10;99.90
12817;DHT22;6473;51.552;6.716;2022-10-12T07:27:34;7.50;99.90
12817;DHT22;6473;51.552;6.716;2022-10-12T07:30:02;7.70;99.90
12817;DHT22;6473;51.552;6.716;2022-10-12T07:32:29;7.90;99.90
12817;DHT22;6473;51.552;6.716;2022-10-12T07:34:56;7.90;99.90
12817;DHT22;6473;51.552;6.716;2022-10-12T07:37:23;8.40;99.90
12817;DHT22;6473;51.552;6.716;2022-10-12T07:39:50;8.70;99.90
12817;DHT22;6473;51.552;6.716;2022-10-12T07:42:23;9.00;99.90
12817;DHT22;6473;51.552;6.716;2022-10-12T07:44:49;9.40;99.90
12817;DHT22;6473;51.552;6.716;2022-10-12T07:47:16;9.70;99.90
12817;DHT22;6473;51.552;6.716;2022-10-12T07:49:43;10.10;99.90
12817;DHT22;6473;51.552;6.716;2022-10-12T07:52:10;10.50;99.90
12817;DHT22;6473;51.552;6.716;2022-10-12T07:54:37;10.80;99.90
12817;DHT22;6473;51.552;6.716;2022-10-12T07:59:33;11.40;99.90
12817;DHT22;6473;51.552;6.716;2022-10-12T08:01:59;11.70;99.90
12817;DHT22;6473;51.552;6.716;2022-10-12T08:04:26;11.80;99.90
12817;DHT22;6473;51.552;6.716;2022-10-12T08:06:53;12.00;99.10
12817;DHT22;6473;51.552;6.716;2022-10-12T08:09:20;11.90;94.00
12817;DHT22;6473;51.552;6.716;2022-10-12T08:11:48;11.60;96.10
12817;DHT22;6473;51.552;6.716;2022-10-12T08:14:17;11.50;97.20
12817;DHT22;6473;51.552;6.716;2022-10-12T08:16:45;11.70;97.10
12817;DHT22;6473;51.552;6.716;2022-10-12T08:21:40;12.20;93.90
12817;DHT22;6473;51.552;6.716;2022-10-12T08:24:08;12.30;91.40
12817;DHT22;6473;51.552;6.716;2022-10-12T08:26:35;12.60;89.20
12817;DHT22;6473;51.552;6.716;2022-10-12T08:29:03;12.80;83.80
12817;DHT22;6473;51.552;6.716;2022-10-12T08:31:31;13.20;79.70
12817;DHT22;6473;51.552;6.716;2022-10-12T08:33:59;13.10;69.60
12817;DHT22;6473;51.552;6.716;2022-10-12T08:36:26;13.30;68.00
12817;DHT22;6473;51.552;6.716;2022-10-12T08:38:54;13.50;64.90
12817;DHT22;6473;51.552;6.716;2022-10-12T08:41:39;13.50;56.80
12817;DHT22;6473;51.552;6.716;2022-10-12T08:44:39;13.70;50.60
12817;DHT22;6473;51.552;6.716;2022-10-12T08:47:15;14.10;39.90
12817;DHT22;6473;51.552;6.716;2022-10-12T08:49:46;14.60;38.10
12817;DHT22;6473;51.552;6.716;2022-10-12T08:52:22;14.70;22.60
12817;DHT22;6473;51.552;6.716;2022-10-12T08:54:50;14.60;7.50
12817;DHT22;6473;51.552;6.716;2022-10-12T08:57:20;14.60;4.10
12817;DHT22;6473;51.552;6.716;2022-10-12T08:59:47;14.90;1.00
12817;DHT22;6473;51.552;6.716;2022-10-12T09:02:29;14.40;1.00
12817;DHT22;6473;51.552;6.716;2022-10-12T09:05:05;14.70;1.00
12817;DHT22;6473;51.552;6.716;2022-10-12T09:07:36;15.30;1.00
12817;DHT22;6473;51.552;6.716;2022-10-12T09:10:15;15.70;1.00
12817;DHT22;6473;51.552;6.716;2022-10-12T09:12:54;15.60;1.00
12817;DHT22;6473;51.552;6.716;2022-10-12T09:15:25;15.10;1.00
12817;DHT22;6473;51.552;6.716;2022-10-12T09:17:55;14.90;1.00
12817;DHT22;6473;51.552;6.716;2022-10-12T09:20:26;15.00;1.00
12817;DHT22;6473;51.552;6.716;2022-10-12T09:22:57;15.40;1.00
12817;DHT22;6473;51.552;6.716;2022-10-12T09:25:27;15.30;1.00
12817;DHT22;6473;51.552;6.716;2022-10-12T09:28:00;15.60;1.00
12817;DHT22;6473;51.552;6.716;2022-10-12T09:30:32;15.70;1.00
12817;DHT22;6473;51.552;6.716;2022-10-12T09:33:14;15.30;1.00
12817;DHT22;6473;51.552;6.716;2022-10-12T09:35:44;15.80;1.00
12817;DHT22;6473;51.552;6.716;2022-10-12T09:38:11;15.80;1.00
12817;DHT22;6473;51.552;6.716;2022-10-12T09:40:39;15.70;1.00
12817;DHT22;6473;51.552;6.716;2022-10-12T09:43:06;15.40;1.00
12817;DHT22;6473;51.552;6.716;2022-10-12T09:45:34;15.40;1.00
12817;DHT22;6473;51.552;6.716;2022-10-12T09:48:17;16.10;1.00
12817;DHT22;6473;51.552;6.716;2022-10-12T09:50:49;16.50;1.00
12817;DHT22;6473;51.552;6.716;2022-10-12T09:53:28;16.50;1.00
12817;DHT22;6473;51.552;6.716;2022-10-12T09:56:00;16.20;1.00
12817;DHT22;6473;51.552;6.716;2022-10-12T09:58:28;16.40;1.00
12817;DHT22;6473;51.552;6.716;2022-10-12T10:01:14;16.80;1.00
12817;DHT22;6473;51.552;6.716;2022-10-12T10:03:44;17.30;1.00
12817;DHT22;6473;51.552;6.716;2022-10-12T10:06:12;17.50;1.00
12817;DHT22;6473;51.552;6.716;2022-10-12T10:08:42;17.90;1.00
12817;DHT22;6473;51.552;6.716;2022-10-12T10:11:13;18.00;1.00
12817;DHT22;6473;51.552;6.716;2022-10-12T10:13:47;18.40;1.00
12817;DHT22;6473;51.552;6.716;2022-10-12T10:16:15;19.10;1.00
12817;DHT22;6473;51.552;6.716;2022-10-12T10:18:44;19.20;1.00
12817;DHT22;6473;51.552;6.716;2022-10-12T10:21:22;19.40;1.00
12817;DHT22;6473;51.552;6.716;2022-10-12T10:23:51;19.90;1.00
12817;DHT22;6473;51.552;6.716;2022-10-12T10:26:20;20.00;1.00
12817;DHT22;6473;51.552;6.716;2022-10-12T10:28:49;20.20;1.00
12817;DHT22;6473;51.552;6.716;2022-10-12T10:31:19;20.20;1.00
12817;DHT22;6473;51.552;6.716;2022-10-12T10:34:18;20.20;1.00
12817;DHT22;6473;51.552;6.716;2022-10-12T10:36:49;19.80;1.00
12817;DHT22;6473;51.552;6.716;2022-10-12T10:39:19;18.60;1.00
12817;DHT22;6473;51.552;6.716;2022-10-12T10:41:47;17.70;1.00
12817;DHT22;6473;51.552;6.716;2022-10-12T10:44:26;17.50;1.00
12817;DHT22;6473;51.552;6.716;2022-10-12T10:46:55;17.90;1.00
12817;DHT22;6473;51.552;6.716;2022-10-12T10:49:33;17.70;1.00
12817;DHT22;6473;51.552;6.716;2022-10-12T10:52:03;17.30;1.00
12817;DHT22;6473;51.552;6.716;2022-10-12T10:54:34;17.40;1.00
12817;DHT22;6473;51.552;6.716;2022-10-12T10:57:04;16.60;1.00
12817;DHT22;6473;51.552;6.716;2022-10-12T10:59:41;16.80;1.00
12817;DHT22;6473;51.552;6.716;2022-10-12T11:02:23;17.10;1.00
12817;DHT22;6473;51.552;6.716;2022-10-12T11:04:54;17.90;1.00
12817;DHT22;6473;51.552;6.716;2022-10-12T11:07:29;17.70;1.00
12817;DHT22;6473;51.552;6.716;2022-10-12T11:09:59;18.40;1.00
12817;DHT22;6473;51.552;6.716;2022-10-12T11:12:30;18.40;1.00
12817;DHT22;6473;51.552;6.716;2022-10-12T11:15:05;18.70;1.00
12817;DHT22;6473;51.552;6.716;2022-10-12T11:17:36;18.60;1.00
12817;DHT22;6473;51.552;6.716;2022-10-12T11:20:24;19.10;1.00
12817;DHT22;6473;51.552;6.716;2022-10-12T11:22:58;19.80;1.00
12817;DHT22;6473;51.552;6.716;2022-10-12T11:25:30;19.50;1.00
12817;DHT22;6473;51.552;6.716;2022-10-12T11:27:58;17.50;1.00
12817;DHT22;6473;51.552;6.716;2022-10-12T11:30:29;17.90;1.00
12817;DHT22;6473;51.552;6.716;2022-10-12T11:33:05;17.40;1.00
12817;DHT22;6473;51.552;6.716;2022-10-12T11:35:35;17.50;1.00
12817;DHT22;6473;51.552;6.716;2022-10-12T11:38:06;17.80;1.00
12817;DHT22;6473;51.552;6.716;2022-10-12T11:40:39;18.30;1.00
12817;DHT22;6473;51.552;6.716;2022-10-12T11:43:12;18.60;1.00
12817;DHT22;6473;51.552;6.716;2022-10-12T11:45:43;18.40;1.00
12817;DHT22;6473;51.552;6.716;2022-10-12T11:48:14;17.40;1.00
12817;DHT22;6473;51.552;6.716;2022-10-12T11:50:44;17.50;1.00
12817;DHT22;6473;51.552;6.716;2022-10-12T11:53:21;17.60;1.00
12817;DHT22;6473;51.552;6.716;2022-10-12T11:56:04;18.20;1.00
12817;DHT22;6473;51.552;6.716;2022-10-12T11:58:36;18.90;1.00
12817;DHT22;6473;51.552;6.716;2022-10-12T12:01:14;19.00;1.00
12817;DHT22;6473;51.552;6.716;2022-10-12T12:04:08;18.10;1.00
12817;DHT22;6473;51.552;6.716;2022-10-12T12:06:57;18.40;1.00
12817;DHT22;6473;51.552;6.716;2022-10-12T12:09:38;19.00;1.00
12817;DHT22;6473;51.552;6.716;2022-10-12T12:12:23;19.40;1.00
12817;DHT22;6473;51.552;6.716;2022-10-12T12:15:20;19.80;1.00
12817;DHT22;6473;51.552;6.716;2022-10-12T12:18:09;20.30;1.00
12817;DHT22;6473;51.552;6.716;2022-10-12T12:21:00;20.30;1.00
12817;DHT22;6473;51.552;6.716;2022-10-12T12:23:31;20.20;1.00
12817;DHT22;6473;51.552;6.716;2022-10-12T12:26:11;20.10;1.00
12817;DHT22;6473;51.552;6.716;2022-10-12T12:28:40;19.30;1.00
12817;DHT22;6473;51.552;6.716;2022-10-12T12:31:12;18.20;1.00
12817;DHT22;6473;51.552;6.716;2022-10-12T12:33:41;17.80;1.00
12817;DHT22;6473;51.552;6.716;2022-10-12T12:36:13;17.40;1.00
12817;DHT22;6473;51.552;6.716;2022-10-12T12:38:46;17.90;1.00
12817;DHT22;6473;51.552;6.716;2022-10-12T12:41:17;17.60;1.00
12817;DHT22;6473;51.552;6.716;2022-10-12T12:43:55;17.50;1.00
12817;DHT22;6473;51.552;6.716;2022-10-12T12:46:25;17.50;1.00
12817;DHT22;6473;51.552;6.716;2022-10-12T12:49:25;17.50;1.00
12817;DHT22;6473;51.552;6.716;2022-10-12T12:51:54;18.50;1.00
12817;DHT22;6473;51.552;6.716;2022-10-12T12:54:23;18.60;1.00
12817;DHT22;6473;51.552;6.716;2022-10-12T12:57:08;19.70;1.00
12817;DHT22;6473;51.552;6.716;2022-10-12T13:00:09;20.30;1.00
12817;DHT22;6473;51.552;6.716;2022-10-12T13:02:49;20.60;1.00
12817;DHT22;6473;51.552;6.716;2022-10-12T13:06:02;20.60;1.00
12817;DHT22;6473;51.552;6.716;2022-10-12T13:08:42;19.70;1.00
12817;DHT22;6473;51.552;6.716;2022-10-12T13:11:43;21.70;1.00
12817;DHT22;6473;51.552;6.716;2022-10-12T13:14:41;23.40;1.00
12817;DHT22;6473;51.552;6.716;2022-10-12T13:17:28;21.50;1.00
12817;DHT22;6473;51.552;6.716;2022-10-12T13:20:03;20.60;1.00
12817;DHT22;6473;51.552;6.716;2022-10-12T13:22:33;20.20;1.00
12817;DHT22;6473;51.552;6.716;2022-10-12T13:25:03;18.90;1.00
12817;DHT22;6473;51.552;6.716;2022-10-12T13:27:32;17.90;1.00
12817;DHT22;6473;51.552;6.716;2022-10-12T13:30:14;18.10;1.00
12817;DHT22;6473;51.552;6.716;2022-10-12T13:32:44;18.30;1.00
12817;DHT22;6473;51.552;6.716;2022-10-12T13:35:30;17.70;1.00
12817;DHT22;6473;51.552;6.716;2022-10-12T13:38:00;18.50;1.00
12817;DHT22;6473;51.552;6.716;2022-10-12T13:40:31;19.20;1.00
12817;DHT22;6473;51.552;6.716;2022-10-12T13:43:25;19.60;1.00
12817;DHT22;6473;51.552;6.716;2022-10-12T13:45:55;20.10;1.00
12817;DHT22;6473;51.552;6.716;2022-10-12T13:48:32;20.30;1.00
12817;DHT22;6473;51.552;6.716;2022-10-12T13:51:03;20.20;1.00
12817;DHT22;6473;51.552;6.716;2022-10-12T13:53:35;19.60;1.00
12817;DHT22;6473;51.552;6.716;2022-10-12T13:56:07;18.10;1.00
12817;DHT22;6473;51.552;6.716;2022-10-12T13:58:36;18.10;1.00
12817;DHT22;6473;51.552;6.716;2022-10-12T14:01:04;18.20;1.00
12817;DHT22;6473;51.552;6.716;2022-10-12T14:03:39;17.80;1.00
12817;DHT22;6473;51.552;6.716;2022-10-12T14:06:23;17.90;1.00
12817;DHT22;6473;51.552;6.716;2022-10-12T14:08:54;18.00;1.00
12817;DHT22;6473;51.552;6.716;2022-10-12T14:11:22;18.20;1.00
12817;DHT22;6473;51.552;6.716;2022-10-12T14:13:50;18.20;1.00
12817;DHT22;6473;51.552;6.716;2022-10-12T14:16:37;18.20;1.00
12817;DHT22;6473;51.552;6.716;2022-10-12T14:19:33;18.20;1.00
12817;DHT22;6473;51.552;6.716;2022-10-12T14:22:27;18.20;1.00
12817;DHT22;6473;51.552;6.716;2022-10-12T14:25:08;17.80;1.00
12817;DHT22;6473;51.552;6.716;2022-10-12T14:27:39;17.80;1.00
12817;DHT22;6473;51.552;6.716;2022-10-12T14:30:23;17.70;1.00
12817;DHT22;6473;51.552;6.716;2022-10-12T14:33:08;18.00;1.00
12817;DHT22;6473;51.552;6.716;2022-10-12T14:35:37;18.20;1.00
12817;DHT22;6473;51.552;6.716;2022-10-12T14:38:35;18.30;1.00
12817;DHT22;6473;51.552;6.716;2022-10-12T14:41:31;18.40;1.00
12817;DHT22;6473;51.552;6.716;2022-10-12T14:44:10;18.40;1.00
12817;DHT22;6473;51.552;6.716;2022-10-12T14:46:40;18.40;1.00
12817;DHT22;6473;51.552;6.716;2022-10-12T14:49:16;18.20;1.00
12817;DHT22;6473;51.552;6.716;2022-10-12T14:51:44;18.10;1.00
12817;DHT22;6473;51.552;6.716;2022-10-12T14:54:11;17.90;1.00
12817;DHT22;6473;51.552;6.716;2022-10-12T14:56:38;17.90;1.00
12817;DHT22;6473;51.552;6.716;2022-10-12T14:59:05;18.00;1.00
12817;DHT22;6473;51.552;6.716;2022-10-12T15:02:18;18.10;1.00
12817;DHT22;6473;51.552;6.716;2022-10-12T15:04:48;18.20;1.00
12817;DHT22;6473;51.552;6.716;2022-10-12T15:07:17;18.30;1.00
12817;DHT22;6473;51.552;6.716;2022-10-12T15:10:12;18.40;1.00
12817;DHT22;6473;51.552;6.716;2022-10-12T15:12:49;18.20;1.00
12817;DHT22;6473;51.552;6.716;2022-10-12T15:15:29;18.10;1.00
12817;DHT22;6473;51.552;6.716;2022-10-12T15:17:57;18.20;1.00
12817;DHT22;6473;51.552;6.716;2022-10-12T15:20:44;18.10;1.00
12817;DHT22;6473;51.552;6.716;2022-10-12T15:23:13;18.10;1.00
12817;DHT22;6473;51.552;6.716;2022-10-12T15:25:43;17.60;1.00
12817;DHT22;6473;51.552;6.716;2022-10-12T15:28:12;17.40;1.00
12817;DHT22;6473;51.552;6.716;2022-10-12T15:30:39;16.90;1.00
12817;DHT22;6473;51.552;6.716;2022-10-12T15:33:07;16.80;1.00
12817;DHT22;6473;51.552;6.716;2022-10-12T15:35:35;16.80;1.00
12817;DHT22;6473;51.552;6.716;2022-10-12T15:38:08;16.90;1.00
12817;DHT22;6473;51.552;6.716;2022-10-12T15:40:43;16.70;1.00
12817;DHT22;6473;51.552;6.716;2022-10-12T15:43:21;16.60;1.00
12817;DHT22;6473;51.552;6.716;2022-10-12T15:45:49;16.50;1.00
12817;DHT22;6473;51.552;6.716;2022-10-12T15:48:16;16.40;1.00
12817;DHT22;6473;51.552;6.716;2022-10-12T15:50:45;16.40;1.00
12817;DHT22;6473;51.552;6.716;2022-10-12T15:53:16;16.20;1.00
12817;DHT22;6473;51.552;6.716;2022-10-12T15:55:47;16.10;1.00
12817;DHT22;6473;51.552;6.716;2022-10-12T16:00:42;16.20;1.00
12817;DHT22;6473;51.552;6.716;2022-10-12T16:03:13;15.90;2.80
12817;DHT22;6473;51.552;6.716;2022-10-12T16:05:41;15.80;7.10
12817;DHT22;6473;51.552;6.716;2022-10-12T16:08:23;15.80;13.10
12817;DHT22;6473;51.552;6.716;2022-10-12T16:10:51;15.70;18.60
12817;DHT22;6473;51.552;6.716;2022-10-12T16:13:22;15.70;20.20
12817;DHT22;6473;51.552;6.716;2022-10-12T16:15:55;15.80;22.90
12817;DHT22;6473;51.552;6.716;2022-10-12T16:18:22;15.70;27.90
12817;DHT22;6473;51.552;6.716;2022-10-12T16:20:53;15.70;29.40
12817;DHT22;6473;51.552;6.716;2022-10-12T16:23:24;15.60;33.10
12817;DHT22;6473;51.552;6.716;2022-10-12T16:25:55;15.40;35.50
12817;DHT22;6473;51.552;6.716;2022-10-12T16:28:24;15.20;48.10
12817;DHT22;6473;51.552;6.716;2022-10-12T16:30:51;15.10;49.60
12817;DHT22;6473;51.552;6.716;2022-10-12T16:35:46;15.10;53.90
12817;DHT22;6473;51.552;6.716;2022-10-12T16:38:13;15.00;55.40
12817;DHT22;6473;51.552;6.716;2022-10-12T16:40:51;15.00;57.20
12817;DHT22;6473;51.552;6.716;2022-10-12T16:43:36;15.00;60.90
12817;DHT22;6473;51.552;6.716;2022-10-12T16:48:34;14.80;70.10
12817;DHT22;6473;51.552;6.716;2022-10-12T16:51:04;14.80;70.00
12817;DHT22;6473;51.552;6.716;2022-10-12T16:53:31;14.70;71.70
12817;DHT22;6473;51.552;6.716;2022-10-12T16:56:00;14.60;74.90
12817;DHT22;6473;51.552;6.716;2022-10-12T16:59:02;14.40;78.80
12817;DHT22;6473;51.552;6.716;2022-10-12T17:01:29;12.40;80.80
12817;DHT22;6473;51.552;6.716;2022-10-12T17:03:56;14.10;87.30
12817;DHT22;6473;51.552;6.716;2022-10-12T17:06:26;14.00;90.80
12817;DHT22;6473;51.552;6.716;2022-10-12T17:08:56;14.00;91.80
12817;DHT22;6473;51.552;6.716;2022-10-12T17:11:28;13.90;93.50
12817;DHT22;6473;51.552;6.716;2022-10-12T17:13:55;13.80;95.10
12817;DHT22;6473;51.552;6.716;2022-10-12T17:16:23;13.70;95.70
12817;DHT22;6473;51.552;6.716;2022-10-12T17:19:07;13.60;96.80
12817;DHT22;6473;51.552;6.716;2022-10-12T17:21:34;13.50;98.40
12817;DHT22;6473;51.552;6.716;2022-10-12T17:24:07;13.60;99.60
12817;DHT22;6473;51.552;6.716;2022-10-12T17:26:35;13.50;99.50
12817;DHT22;6473;51.552;6.716;2022-10-12T17:29:04;13.40;99.90
12817;DHT22;6473;51.552;6.716;2022-10-12T17:31:31;13.30;99.90
12817;DHT22;6473;51.552;6.716;2022-10-12T17:36:33;13.20;99.90
12817;DHT22;6473;51.552;6.716;2022-10-12T17:39:00;13.10;99.90
12817;DHT22;6473;51.552;6.716;2022-10-12T17:41:28;13.20;99.90
12817;DHT22;6473;51.552;6.716;2022-10-12T17:43:56;13.10;99.90
12817;DHT22;6473;51.552;6.716;2022-10-12T17:46:24;13.00;99.90
12817;DHT22;6473;51.552;6.716;2022-10-12T17:48:52;12.90;99.90
12817;DHT22;6473;51.552;6.716;2022-10-12T17:51:19;12.80;99.90
12817;DHT22;6473;51.552;6.716;2022-10-12T17:53:47;12.70;99.90
12817;DHT22;6473;51.552;6.716;2022-10-12T17:56:14;12.60;99.90
12817;DHT22;6473;51.552;6.716;2022-10-12T17:58:41;12.50;99.90
12817;DHT22;6473;51.552;6.716;2022-10-12T18:01:11;12.40;99.90
12817;DHT22;6473;51.552;6.716;2022-10-12T18:03:43;12.40;99.90
12817;DHT22;6473;51.552;6.716;2022-10-12T18:06:13;12.40;99.90
12817;DHT22;6473;51.552;6.716;2022-10-12T18:08:41;12.30;99.90
12817;DHT22;6473;51.552;6.716;2022-10-12T18:11:09;12.20;99.90
12817;DHT22;6473;51.552;6.716;2022-10-12T18:13:36;12.10;99.90
12817;DHT22;6473;51.552;6.716;2022-10-12T18:16:08;12.00;99.90
12817;DHT22;6473;51.552;6.716;2022-10-12T18:18:36;11.90;99.90
12817;DHT22;6473;51.552;6.716;2022-10-12T18:21:04;11.90;99.90
12817;DHT22;6473;51.552;6.716;2022-10-12T18:23:35;11.70;99.90
12817;DHT22;6473;51.552;6.716;2022-10-12T18:26:03;11.50;99.90
12817;DHT22;6473;51.552;6.716;2022-10-12T18:28:31;11.40;99.90
12817;DHT22;6473;51.552;6.716;2022-10-12T18:31:01;11.30;99.90
12817;DHT22;6473;51.552;6.716;2022-10-12T18:33:29;11.40;99.90
12817;DHT22;6473;51.552;6.716;2022-10-12T18:36:02;11.40;99.90
12817;DHT22;6473;51.552;6.716;2022-10-12T18:38:30;11.40;99.90
12817;DHT22;6473;51.552;6.716;2022-10-12T18:41:01;11.30;99.90
12817;DHT22;6473;51.552;6.716;2022-10-12T18:43:28;11.30;99.90
12817;DHT22;6473;51.552;6.716;2022-10-12T18:45:55;11.40;99.90
12817;DHT22;6473;51.552;6.716;2022-10-12T18:48:23;11.30;99.90
12817;DHT22;6473;51.552;6.716;2022-10-12T18:50:50;11.20;99.90
12817;DHT22;6473;51.552;6.716;2022-10-12T18:53:18;11.10;99.90
12817;DHT22;6473;51.552;6.716;2022-10-12T18:55:54;11.10;99.90
12817;DHT22;6473;51.552;6.716;2022-10-12T18:58:21;11.00;99.90
12817;DHT22;6473;51.552;6.716;2022-10-12T19:00:48;10.90;99.90
12817;DHT22;6473;51.552;6.716;2022-10-12T19:03:15;10.70;99.90
12817;DHT22;6473;51.552;6.716;2022-10-12T19:05:46;10.60;99.90
12817;DHT22;6473;51.552;6.716;2022-10-12T19:08:13;10.70;99.90
12817;DHT22;6473;51.552;6.716;2022-10-12T19:10:41;10.70;99.90
12817;DHT22;6473;51.552;6.716;2022-10-12T19:13:08;10.60;99.90
12817;DHT22;6473;51.552;6.716;2022-10-12T19:18:03;10.40;99.90
12817;DHT22;6473;51.552;6.716;2022-10-12T19:20:30;10.30;99.90
12817;DHT22;6473;51.552;6.716;2022-10-12T19:22:58;10.30;99.90
12817;DHT22;6473;51.552;6.716;2022-10-12T19:25:25;10.20;99.90
12817;DHT22;6473;51.552;6.716;2022-10-12T19:27:53;10.10;99.90
12817;DHT22;6473;51.552;6.716;2022-10-12T19:30:20;10.00;99.90
12817;DHT22;6473;51.552;6.716;2022-10-12T19:32:47;9.90;99.90
12817;DHT22;6473;51.552;6.716;2022-10-12T19:35:17;9.90;99.90
12817;DHT22;6473;51.552;6.716;2022-10-12T19:37:45;9.80;99.90
12817;DHT22;6473;51.552;6.716;2022-10-12T19:40:12;9.90;99.90
12817;DHT22;6473;51.552;6.716;2022-10-12T19:42:39;9.80;99.90
12817;DHT22;6473;51.552;6.716;2022-10-12T19:45:08;9.90;99.90
12817;DHT22;6473;51.552;6.716;2022-10-12T19:47:35;9.90;99.90
12817;DHT22;6473;51.552;6.716;2022-10-12T19:50:02;9.80;99.90
12817;DHT22;6473;51.552;6.716;2022-10-12T19:52:29;9.80;99.90
12817;DHT22;6473;51.552;6.716;2022-10-12T19:54:56;9.70;99.90
12817;DHT22;6473;51.552;6.716;2022-10-12T19:57:23;9.70;99.90
12817;DHT22;6473;51.552;6.716;2022-10-12T19:59:50;9.70;99.90
12817;DHT22;6473;51.552;6.716;2022-10-12T20:02:19;9.70;99.90
12817;DHT22;6473;51.552;6.716;2022-10-12T20:04:46;9.70;99.90
12817;DHT22;6473;51.552;6.716;2022-10-12T20:07:21;9.60;99.90
12817;DHT22;6473;51.552;6.716;2022-10-12T20:12:24;9.50;99.90
12817;DHT22;6473;51.552;6.716;2022-10-12T20:14:51;9.50;99.90
12817;DHT22;6473;51.552;6.716;2022-10-12T20:17:20;9.40;99.90
12817;DHT22;6473;51.552;6.716;2022-10-12T20:19:48;9.50;99.90
12817;DHT22;6473;51.552;6.716;2022-10-12T20:22:15;9.40;99.90
12817;DHT22;6473;51.552;6.716;2022-10-12T20:24:44;9.40;99.90
12817;DHT22;6473;51.552;6.716;2022-10-12T20:29:40;9.20;99.90
12817;DHT22;6473;51.552;6.716;2022-10-12T20:32:07;9.10;99.90
12817;DHT22;6473;51.552;6.716;2022-10-12T20:34:36;9.00;99.90
12817;DHT22;6473;51.552;6.716;2022-10-12T20:37:04;9.00;99.90
12817;DHT22;6473;51.552;6.716;2022-10-12T20:39:33;9.00;99.90
12817;DHT22;6473;51.552;6.716;2022-10-12T20:46:55;7.70;99.90
12817;DHT22;6473;51.552;6.716;2022-10-12T20:49:25;9.10;99.90
12817;DHT22;6473;51.552;6.716;2022-10-12T20:51:53;9.00;99.90
12817;DHT22;6473;51.552;6.716;2022-10-12T20:56:48;9.00;99.90
12817;DHT22;6473;51.552;6.716;2022-10-12T21:01:45;8.90;99.90
12817;DHT22;6473;51.552;6.716;2022-10-12T21:04:14;8.90;99.90
12817;DHT22;6473;51.552;6.716;2022-10-12T21:09:13;8.80;99.90
12817;DHT22;6473;51.552;6.716;2022-10-12T21:11:42;8.70;99.90